Airfield :







YOU CAN JOIN US ON...

 
LOGIN :

Register | Disclaimer

   EN    FR    IT 

 









Legend :    VFR   Marginal VFR   IFR   Intensive IFR   Very Intensive IFR
Visi :
Ceiling :
>= 8 km
>= 3000ft
5 to 8 km
1000 to 3000 ft
1500m to 5 km
500 to 1000 ft
800 to 1500m
200 to 500 ft
< 800m
< 200 ft
Symbols :   Thunderstorms  Fog  Heavy snow  Heavy precipitations  Wind > 20 kt






- Airport Elevation : 59 ft
- IATA code : SDQ


MDSD - Las Americas Int.

CURRENT METAR :
  • 060000Z 12004KT 9999 FEW018 24/22 Q1015

EXPIRED METARs :
  • 052301Z 12004KT 9999 FEW018 25/22 Q1014
  • 052300Z 12004KT 9999 FEW018 23/22 Q1014
  • 052200Z 11004KT 9999 FEW020 26/23 Q1014

TAF TAF MDSD
Valid from the 06 at 00:00 until the 07 at 00:00 UTC


052200Z 0600/0700 11004KT 9999 FEW018
BECMG 0604/0606 02004KT
MDCS FIR / North America



MET'MAP, your aeronautical weather chart ! - Copyright ORBIFLY December 2007 - Disclaimer

ORBIFLY MET'MAP TEAM :

Programming & Development : Alexandra Zaïnal
Concept & original design : Baudouin d'Aumeries
Assistance for programming : Marc-Olivier Méhu
Technical & hardware support : Manuel Goepfert

Contact : metmap@orbifly.com




SOURCES & CREDITS :

   NOAA